createdAt,value
2019-04-30T00:02:34.396Z,102444.04
2019-04-30T00:05:20.733Z,102442.18
2019-04-30T00:08:12.075Z,102443.81
2019-04-30T00:11:05.352Z,102443.84
2019-04-30T00:13:58.898Z,102443.70
2019-04-30T00:16:51.353Z,102442.27
2019-04-30T00:19:42.949Z,102440.32
2019-04-30T00:22:39.363Z,102443.17
2019-04-30T00:25:28.657Z,102436.08
2019-04-30T00:28:20.287Z,102431.16
2019-04-30T00:31:11.893Z,102434.77
2019-04-30T00:34:05.054Z,102434.23
2019-04-30T00:36:57.965Z,102432.27
2019-04-30T00:39:51.570Z,102428.56
2019-04-30T00:42:45.649Z,102433.56
2019-04-30T00:45:40.007Z,102426.07
2019-04-30T00:48:31.304Z,102430.52
2019-04-30T00:51:22.789Z,102427.63
2019-04-30T00:54:15.274Z,102423.93
2019-04-30T00:57:07.828Z,102420.88
2019-04-30T01:00:00.274Z,102415.81
2019-04-30T01:03:12.881Z,102408.16
2019-04-30T01:06:05.409Z,102403.25
2019-04-30T01:08:58.306Z,102401.73
2019-04-30T01:11:50.051Z,102404.21
2019-04-30T01:14:41.625Z,102401.62
2019-04-30T01:17:33.154Z,102400.83
2019-04-30T01:20:31.359Z,102401.57
2019-04-30T01:23:20.488Z,102398.24
2019-04-30T01:26:12.204Z,102396.30
2019-04-30T01:29:03.904Z,102390.88
2019-04-30T01:31:55.364Z,102389.31
2019-04-30T01:34:49.953Z,102386.17
2019-04-30T01:37:39.888Z,102384.84
2019-04-30T01:40:31.259Z,102379.03
2019-04-30T01:43:30.514Z,102378.50
2019-04-30T01:46:15.398Z,102378.42
2019-04-30T01:49:08.628Z,102385.39
2019-04-30T01:52:01.748Z,102381.00
2019-04-30T01:54:52.984Z,102381.47
2019-04-30T01:57:53.814Z,102382.27
2019-04-30T02:00:51.757Z,102382.31
2019-04-30T02:03:43.297Z,102386.82
2019-04-30T02:06:34.689Z,102386.18
2019-04-30T02:09:25.989Z,102384.31
2019-04-30T02:12:19.742Z,102381.77
2019-04-30T02:15:10.707Z,102389.99
2019-04-30T02:18:02.039Z,102386.67
2019-04-30T02:20:53.540Z,102386.37
2019-04-30T02:23:45.248Z,102387.33
2019-04-30T02:26:38.381Z,102389.40
2019-04-30T02:29:30.029Z,102387.78
2019-04-30T02:32:21.531Z,102385.01
2019-04-30T02:35:21.391Z,102385.06
2019-04-30T02:38:20.210Z,102393.48
2019-04-30T02:41:12.869Z,102387.55
2019-04-30T02:44:05.004Z,102390.33
2019-04-30T02:47:00.493Z,102389.90
2019-04-30T02:50:10.174Z,102393.02
2019-04-30T02:52:50.517Z,102387.72
2019-04-30T02:55:46.050Z,102388.63
2019-04-30T02:58:40.851Z,102388.44
2019-04-30T03:01:31.213Z,102385.59
2019-04-30T03:04:22.514Z,102378.80
2019-04-30T03:07:13.873Z,102375.16
2019-04-30T03:10:09.786Z,102378.38
2019-04-30T03:13:00.194Z,102381.53
2019-04-30T03:15:51.976Z,102377.21
2019-04-30T03:19:10.633Z,102372.45
2019-04-30T03:22:10.021Z,102376.81
2019-04-30T03:25:00.307Z,102378.90
2019-04-30T03:27:52.182Z,102372.47
2019-04-30T03:30:44.556Z,102368.36
2019-04-30T03:33:36.130Z,102367.50
2019-04-30T03:36:32.174Z,102366.38
2019-04-30T03:39:21.139Z,102365.44
2019-04-30T03:42:12.694Z,102363.80
2019-04-30T03:45:04.907Z,102358.71
2019-04-30T03:47:56.398Z,102360.48
2019-04-30T03:50:53.424Z,102360.55
2019-04-30T03:53:42.718Z,102363.51
2019-04-30T03:56:34.656Z,102360.80
2019-04-30T03:59:26.762Z,102354.30
2019-04-30T04:02:41.613Z,102357.33
2019-04-30T04:05:40.211Z,102357.23
2019-04-30T04:08:43.203Z,102359.70
2019-04-30T04:11:39.641Z,102361.24
2019-04-30T04:14:31.094Z,102355.69
2019-04-30T04:17:23.959Z,102363.64
2019-04-30T04:20:15.909Z,102363.98
2019-04-30T04:23:09.667Z,102364.89
2019-04-30T04:26:01.170Z,102364.11
2019-04-30T04:28:52.955Z,102362.98
2019-04-30T04:31:44.570Z,102366.05
2019-04-30T04:34:35.893Z,102361.20
2019-04-30T04:37:29.301Z,102361.92
2019-04-30T04:40:21.240Z,102364.73
2019-04-30T04:43:13.680Z,102359.43
2019-04-30T04:46:05.347Z,102365.19
2019-04-30T04:48:59.498Z,102362.02
2019-04-30T04:51:50.033Z,102366.98
2019-04-30T04:54:41.413Z,102370.18
2019-04-30T04:57:33.059Z,102363.10
2019-04-30T05:00:24.349Z,102367.66
2019-04-30T05:03:24.623Z,102360.28
2019-04-30T05:06:15.971Z,102362.28
2019-04-30T05:09:09.733Z,102366.16
2019-04-30T05:12:00.905Z,102365.60
2019-04-30T05:14:52.270Z,102364.91
2019-04-30T05:17:43.513Z,102364.59
2019-04-30T05:20:34.797Z,102366.39
2019-04-30T05:23:26.182Z,102373.09
2019-04-30T05:26:19.124Z,102370.72
2019-04-30T05:29:10.690Z,102373.58
2019-04-30T05:32:02.000Z,102373.19
2019-04-30T05:34:54.504Z,102371.87
2019-04-30T05:37:45.761Z,102371.71
2019-04-30T05:40:37.184Z,102373.97
2019-04-30T05:43:29.103Z,102376.05
2019-04-30T05:46:21.588Z,102368.45
2019-04-30T05:49:13.156Z,102370.69
2019-04-30T05:52:04.789Z,102380.07
2019-04-30T05:54:58.509Z,102376.42
2019-04-30T05:57:55.935Z,102373.17
2019-04-30T06:00:43.256Z,102374.06
2019-04-30T06:03:34.885Z,102378.61
2019-04-30T06:06:26.143Z,102381.45
2019-04-30T06:09:31.663Z,102378.87
2019-04-30T06:12:39.169Z,102381.11
2019-04-30T06:15:44.394Z,102379.66
2019-04-30T06:18:35.695Z,102380.64
2019-04-30T06:21:29.472Z,102385.68
2019-04-30T06:24:20.935Z,102384.14
2019-04-30T06:27:12.266Z,102376.31
2019-04-30T06:30:04.045Z,102381.28
2019-04-30T06:32:56.520Z,102379.72
2019-04-30T06:35:49.303Z,102378.28
2019-04-30T06:38:42.353Z,102379.13
2019-04-30T06:41:34.054Z,102383.83
2019-04-30T06:44:37.244Z,102381.36
2019-04-30T06:47:32.006Z,102384.11
2019-04-30T06:50:13.022Z,102383.05
2019-04-30T06:53:05.092Z,102380.60
2019-04-30T06:55:58.850Z,102384.20
2019-04-30T06:58:52.398Z,102385.50
2019-04-30T07:01:44.329Z,102384.64
2019-04-30T07:04:35.962Z,102380.77
2019-04-30T07:07:37.128Z,102385.55
2019-04-30T07:10:26.575Z,102379.34
2019-04-30T07:13:25.582Z,102380.77
2019-04-30T07:16:19.024Z,102373.11
2019-04-30T07:19:10.299Z,102374.98
2019-04-30T07:22:01.876Z,102375.52
2019-04-30T07:24:53.321Z,102373.38
2019-04-30T07:27:45.094Z,102372.80
2019-04-30T07:30:36.918Z,102378.63
2019-04-30T07:33:29.614Z,102375.35
2019-04-30T07:36:21.254Z,102377.51
2019-04-30T07:39:12.846Z,102383.58
2019-04-30T07:42:04.482Z,102379.31
2019-04-30T07:44:55.943Z,102380.03
2019-04-30T07:47:49.450Z,102384.27
2019-04-30T07:50:42.210Z,102378.92
2019-04-30T07:53:34.142Z,102376.61
2019-04-30T07:56:29.322Z,102381.78
2019-04-30T07:59:20.209Z,102386.67
2019-04-30T08:02:14.665Z,102385.70
2019-04-30T08:05:10.702Z,102390.17
2019-04-30T08:08:16.810Z,102390.50
2019-04-30T08:10:55.119Z,102393.88
2019-04-30T08:13:49.415Z,102395.55
2019-04-30T08:16:40.505Z,102394.03
2019-04-30T08:19:31.926Z,102395.45
2019-04-30T08:22:24.691Z,102397.91
2019-04-30T08:25:18.790Z,102399.30
2019-04-30T08:28:09.574Z,102402.64
2019-04-30T08:31:01.783Z,102402.39
2019-04-30T08:33:53.506Z,102405.68
2019-04-30T08:36:45.362Z,102405.28
2019-04-30T08:39:37.158Z,102400.71
2019-04-30T08:42:33.791Z,102396.60
2019-04-30T08:45:21.810Z,102400.90
2019-04-30T08:48:13.337Z,102403.83
2019-04-30T08:51:04.834Z,102405.07
2019-04-30T08:53:58.686Z,102399.75
2019-04-30T08:56:50.586Z,102399.94
2019-04-30T08:59:41.810Z,102400.92
2019-04-30T09:02:33.199Z,102394.61
2019-04-30T09:05:30.611Z,102393.80
2019-04-30T09:08:22.579Z,102393.91
2019-04-30T09:11:22.639Z,102393.61
2019-04-30T09:14:08.483Z,102396.00
2019-04-30T09:17:00.614Z,102394.23
2019-04-30T09:19:52.187Z,102397.94
2019-04-30T09:22:43.587Z,102397.82
2019-04-30T09:25:34.886Z,102394.06
2019-04-30T09:28:26.207Z,102393.86
2019-04-30T09:31:19.637Z,102394.59
2019-04-30T09:34:17.164Z,102394.90
2019-04-30T09:37:03.548Z,102393.53
2019-04-30T09:39:55.210Z,102395.63
2019-04-30T09:42:46.483Z,102394.50
2019-04-30T09:45:39.252Z,102399.48
2019-04-30T09:48:30.772Z,102396.53
2019-04-30T09:51:24.606Z,102404.34
2019-04-30T09:54:15.879Z,102396.69
2019-04-30T09:57:09.130Z,102395.84
2019-04-30T10:00:01.516Z,102397.95
2019-04-30T10:02:53.969Z,102394.98
2019-04-30T10:05:45.423Z,102394.88
2019-04-30T10:08:47.940Z,102394.90
2019-04-30T10:11:59.601Z,102394.92
2019-04-30T10:14:50.987Z,102393.73
2019-04-30T10:17:44.149Z,102396.59
2019-04-30T10:20:44.301Z,102399.17
2019-04-30T10:23:35.861Z,102395.87
2019-04-30T10:26:28.254Z,102386.69
2019-04-30T10:29:22.138Z,102390.00
2019-04-30T10:32:13.786Z,102383.48
2019-04-30T10:35:05.594Z,102389.23
2019-04-30T10:37:57.101Z,102381.05
2019-04-30T10:40:48.891Z,102373.53
2019-04-30T10:43:40.278Z,102370.23
2019-04-30T10:46:32.891Z,102363.50
2019-04-30T10:49:24.269Z,102365.40
2019-04-30T10:52:15.607Z,102370.50
2019-04-30T10:55:09.241Z,102364.16
2019-04-30T10:58:00.773Z,102353.35
2019-04-30T11:00:52.410Z,102351.93
2019-04-30T11:03:43.768Z,102344.45
2019-04-30T11:06:35.411Z,102336.01
2019-04-30T11:09:31.031Z,102331.08
2019-04-30T11:12:23.038Z,102331.78
2019-04-30T11:15:14.386Z,102324.16
2019-04-30T11:18:06.358Z,102326.45
2019-04-30T11:20:59.717Z,102319.72
2019-04-30T11:23:51.749Z,102318.95
2019-04-30T11:26:44.249Z,102319.94
2019-04-30T11:29:36.409Z,102321.78
2019-04-30T11:32:28.336Z,102322.23
2019-04-30T11:35:20.725Z,102321.33
2019-04-30T11:38:12.980Z,102321.23
2019-04-30T11:41:04.620Z,102318.86
2019-04-30T11:43:56.201Z,102313.06
2019-04-30T11:47:23.926Z,102308.48
2019-04-30T11:50:16.455Z,102308.44
2019-04-30T11:53:24.095Z,102302.02
2019-04-30T11:56:01.136Z,102300.71
2019-04-30T11:58:52.487Z,102301.78
2019-04-30T12:01:44.555Z,102296.19
2019-04-30T12:04:35.946Z,102294.61
2019-04-30T12:07:45.467Z,102289.14
2019-04-30T12:11:00.193Z,102292.03
2019-04-30T12:13:52.431Z,102297.05
2019-04-30T12:16:43.866Z,102299.62
2019-04-30T12:19:35.409Z,102291.77
2019-04-30T12:22:29.556Z,102290.27
2019-04-30T12:25:22.365Z,102286.32
2019-04-30T12:28:14.702Z,102276.44
2019-04-30T12:31:06.702Z,102276.52
2019-04-30T12:33:58.428Z,102272.91
2019-04-30T12:36:50.505Z,102279.61
2019-04-30T12:39:42.022Z,102274.40
2019-04-30T12:42:33.931Z,102263.48
2019-04-30T12:45:25.961Z,102252.50
2019-04-30T12:48:35.296Z,102237.06
2019-04-30T12:52:03.961Z,102231.38
2019-04-30T12:55:15.244Z,102227.63
2019-04-30T12:58:01.610Z,102231.35
2019-04-30T13:00:53.258Z,102235.12
2019-04-30T13:03:55.865Z,102242.20
2019-04-30T13:06:39.317Z,102239.82
2019-04-30T13:09:31.986Z,102230.80
2019-04-30T13:12:24.452Z,102234.58
2019-04-30T13:15:16.735Z,102229.24
2019-04-30T13:18:09.564Z,102223.69
2019-04-30T13:21:01.466Z,102214.16
2019-04-30T13:23:53.115Z,102207.64
2019-04-30T13:26:44.408Z,102200.06
2019-04-30T13:30:07.028Z,102199.97
2019-04-30T13:33:15.858Z,102204.85
2019-04-30T13:36:08.753Z,102202.31
2019-04-30T13:39:09.356Z,102207.31
2019-04-30T13:42:17.998Z,102212.25
2019-04-30T13:45:08.966Z,102204.06
2019-04-30T13:48:01.028Z,102199.04
2019-04-30T13:50:52.819Z,102197.48
2019-04-30T13:53:45.058Z,102192.28
2019-04-30T13:56:36.766Z,102190.09
2019-04-30T13:59:28.389Z,102185.00
2019-04-30T14:02:19.695Z,102181.66
2019-04-30T14:05:16.320Z,102179.59
2019-04-30T14:08:31.703Z,102179.47
2019-04-30T14:11:23.054Z,102178.22
2019-04-30T14:14:14.815Z,102175.32
2019-04-30T14:17:06.353Z,102178.27
2019-04-30T14:19:58.098Z,102178.83
2019-04-30T14:22:49.589Z,102171.51
2019-04-30T14:25:40.975Z,102177.77
2019-04-30T14:28:32.752Z,102177.95
2019-04-30T14:31:26.406Z,102171.34
2019-04-30T14:34:18.597Z,102167.35
2019-04-30T14:37:10.440Z,102167.72
2019-04-30T14:40:02.680Z,102163.00
2019-04-30T14:43:23.346Z,102163.13
2019-04-30T14:46:40.737Z,102163.40
2019-04-30T14:50:02.604Z,102160.19
2019-04-30T14:53:14.948Z,102148.95
2019-04-30T14:56:23.338Z,102146.95
2019-04-30T14:59:32.829Z,102141.65
2019-04-30T15:02:31.695Z,102140.66
2019-04-30T15:05:22.982Z,102140.42
2019-04-30T15:08:14.650Z,102143.72
2019-04-30T15:11:06.262Z,102135.80
2019-04-30T15:13:59.161Z,102139.47
2019-04-30T15:16:51.048Z,102133.59
2019-04-30T15:19:42.330Z,102131.33
2019-04-30T15:22:36.459Z,102124.15
2019-04-30T15:25:34.203Z,102125.64
2019-04-30T15:28:20.659Z,102123.37
2019-04-30T15:31:11.964Z,102123.27
2019-04-30T15:34:14.199Z,102127.12
2019-04-30T15:37:05.571Z,102120.09
2019-04-30T15:39:59.083Z,102121.94
2019-04-30T15:42:52.105Z,102121.13
2019-04-30T15:45:43.433Z,102117.06
2019-04-30T15:48:35.015Z,102109.13
2019-04-30T15:51:26.300Z,102101.59
2019-04-30T15:54:19.008Z,102102.98
2019-04-30T15:57:10.674Z,102099.59
2019-04-30T16:00:02.032Z,102102.56
2019-04-30T16:03:00.164Z,102094.94
2019-04-30T16:05:53.435Z,102093.36
2019-04-30T16:08:51.252Z,102095.95
2019-04-30T16:11:59.845Z,102099.02
2019-04-30T16:14:51.278Z,102096.55
2019-04-30T16:17:44.842Z,102098.05
2019-04-30T16:20:36.590Z,102102.13
2019-04-30T16:23:28.920Z,102099.86
2019-04-30T16:26:20.740Z,102092.59
2019-04-30T16:29:12.085Z,102097.25
2019-04-30T16:32:03.740Z,102096.06
2019-04-30T16:34:56.174Z,102097.25
2019-04-30T16:37:49.645Z,102093.72
2019-04-30T16:40:41.131Z,102083.16
2019-04-30T16:43:32.712Z,102090.20
2019-04-30T16:46:24.303Z,102081.91
2019-04-30T16:49:17.802Z,102092.05
2019-04-30T16:52:10.073Z,102093.63
2019-04-30T16:55:01.644Z,102092.02
2019-04-30T16:57:53.294Z,102094.77
2019-04-30T17:00:45.377Z,102094.73
2019-04-30T17:03:40.982Z,102092.47
2019-04-30T17:06:34.295Z,102090.89
2019-04-30T17:09:37.756Z,102091.12
2019-04-30T17:12:35.474Z,102087.72
2019-04-30T17:15:29.277Z,102081.07
2019-04-30T17:18:20.798Z,102085.77
2019-04-30T17:21:12.336Z,102079.62
2019-04-30T17:24:04.148Z,102080.36
2019-04-30T17:26:55.773Z,102079.57
2019-04-30T17:29:47.590Z,102073.38
2019-04-30T17:32:39.777Z,102075.05
2019-04-30T17:35:31.774Z,102076.66
2019-04-30T17:38:23.453Z,102068.07
2019-04-30T17:41:15.226Z,102068.57
2019-04-30T17:44:08.782Z,102064.34
2019-04-30T17:47:00.187Z,102064.56
2019-04-30T17:49:52.152Z,102069.66
2019-04-30T17:52:43.818Z,102075.02
2019-04-30T17:55:36.144Z,102075.06
2019-04-30T17:58:28.223Z,102070.22
2019-04-30T18:01:19.888Z,102071.20
2019-04-30T18:04:11.275Z,102066.35
2019-04-30T18:07:02.659Z,102071.41
2019-04-30T18:09:55.222Z,102066.50
2019-04-30T18:12:47.328Z,102071.57
2019-04-30T18:15:38.957Z,102066.30
2019-04-30T18:18:44.370Z,102068.86
2019-04-30T18:21:43.479Z,102066.49
2019-04-30T18:24:40.624Z,102059.05
2019-04-30T18:27:43.948Z,102061.56
2019-04-30T18:30:33.332Z,102065.95
2019-04-30T18:33:24.725Z,102064.52
2019-04-30T18:36:16.373Z,102065.61
2019-04-30T18:39:09.183Z,102065.05
2019-04-30T18:42:02.329Z,102067.24
2019-04-30T18:44:54.002Z,102064.00
2019-04-30T18:47:45.344Z,102069.29
2019-04-30T18:50:36.801Z,102070.95
2019-04-30T18:53:29.773Z,102068.77
2019-04-30T18:56:21.094Z,102070.87
2019-04-30T18:59:12.397Z,102076.37
2019-04-30T19:02:05.683Z,102070.48
2019-04-30T19:04:57.237Z,102079.70
2019-04-30T19:07:54.118Z,102082.22
2019-04-30T19:11:08.945Z,102079.50
2019-04-30T19:14:29.356Z,102081.84
2019-04-30T19:17:43.318Z,102084.20
2019-04-30T19:20:42.187Z,102081.56
2019-04-30T19:23:33.880Z,102084.75
2019-04-30T19:26:25.555Z,102088.56
2019-04-30T19:29:17.317Z,102089.59
2019-04-30T19:32:09.515Z,102092.21
2019-04-30T19:35:01.276Z,102085.72
2019-04-30T19:37:54.165Z,102094.86
2019-04-30T19:40:45.966Z,102100.50
2019-04-30T19:43:39.086Z,102098.25
2019-04-30T19:46:31.043Z,102099.75
2019-04-30T19:49:22.427Z,102100.05
2019-04-30T19:52:15.076Z,102102.97
2019-04-30T19:55:07.739Z,102102.07
2019-04-30T19:57:59.905Z,102100.31
2019-04-30T20:00:51.457Z,102102.48
2019-04-30T20:03:42.848Z,102103.42
2019-04-30T20:06:34.421Z,102098.60
2019-04-30T20:09:25.813Z,102104.04
2019-04-30T20:12:18.732Z,102102.20
2019-04-30T20:15:19.314Z,102105.21
2019-04-30T20:18:03.822Z,102104.80
2019-04-30T20:21:00.893Z,102101.37
2019-04-30T20:23:49.975Z,102098.56
2019-04-30T20:26:41.341Z,102103.94
2019-04-30T20:29:32.816Z,102097.38
2019-04-30T20:32:33.926Z,102097.38
2019-04-30T20:35:17.234Z,102098.69
2019-04-30T20:38:35.094Z,102096.89
2019-04-30T20:41:28.558Z,102097.34
2019-04-30T20:44:20.492Z,102098.41
2019-04-30T20:47:11.901Z,102099.02
2019-04-30T20:50:03.448Z,102096.19
2019-04-30T20:52:55.032Z,102094.81
2019-04-30T20:55:46.645Z,102089.70
2019-04-30T20:58:44.704Z,102084.90
2019-04-30T21:01:31.629Z,102088.35
2019-04-30T21:04:23.130Z,102086.58
2019-04-30T21:07:14.724Z,102081.13
2019-04-30T21:10:10.105Z,102083.31
2019-04-30T21:13:01.798Z,102078.36
2019-04-30T21:15:55.013Z,102076.27
2019-04-30T21:18:47.079Z,102075.76
2019-04-30T21:21:38.796Z,102078.00
2019-04-30T21:24:30.462Z,102078.48
2019-04-30T21:27:22.727Z,102074.13
2019-04-30T21:30:14.044Z,102076.72
2019-04-30T21:33:26.350Z,102077.81
2019-04-30T21:36:21.556Z,102080.83
2019-04-30T21:39:13.152Z,102080.31
2019-04-30T21:42:04.574Z,102079.02
2019-04-30T21:44:56.341Z,102080.38
2019-04-30T21:47:56.109Z,102082.42
2019-04-30T21:50:41.272Z,102081.84
2019-04-30T21:53:32.941Z,102078.70
2019-04-30T21:56:24.427Z,102081.30
2019-04-30T21:59:24.284Z,102085.80
2019-04-30T22:02:10.401Z,102078.88
2019-04-30T22:05:02.049Z,102085.25
2019-04-30T22:07:55.294Z,102082.55
2019-04-30T22:10:47.092Z,102084.06
2019-04-30T22:13:39.665Z,102084.92
2019-04-30T22:16:32.081Z,102078.88
2019-04-30T22:19:23.771Z,102080.42
2019-04-30T22:22:15.312Z,102074.19
2019-04-30T22:25:09.425Z,102076.48
2019-04-30T22:28:00.976Z,102076.39
2019-04-30T22:30:52.583Z,102072.06
2019-04-30T22:33:44.075Z,102069.58
2019-04-30T22:36:43.137Z,102068.77
2019-04-30T22:39:39.697Z,102067.11
2019-04-30T22:42:34.205Z,102068.54
2019-04-30T22:45:30.828Z,102068.66
2019-04-30T22:48:22.323Z,102063.70
2019-04-30T22:51:14.190Z,102064.63
2019-04-30T22:54:05.707Z,102063.59
2019-04-30T22:56:57.134Z,102061.08
2019-04-30T22:59:49.953Z,102059.47
2019-04-30T23:02:54.411Z,102055.09
2019-04-30T23:05:46.002Z,102053.14
2019-04-30T23:08:37.820Z,102056.59
2019-04-30T23:11:29.348Z,102060.03
2019-04-30T23:14:20.729Z,102049.31
2019-04-30T23:17:12.526Z,102053.09
2019-04-30T23:20:06.302Z,102050.89
2019-04-30T23:22:57.866Z,102043.58
2019-04-30T23:25:49.066Z,102041.02
2019-04-30T23:28:40.427Z,102044.45
2019-04-30T23:31:32.486Z,102031.83
2019-04-30T23:34:24.098Z,102038.92
2019-04-30T23:37:16.709Z,102034.91
2019-04-30T23:40:27.208Z,102030.53
2019-04-30T23:43:18.968Z,102031.91
2019-04-30T23:46:10.684Z,102029.03
2019-04-30T23:49:01.932Z,102024.14
2019-04-30T23:51:53.312Z,102025.45
2019-04-30T23:54:44.933Z,102026.30
2019-04-30T23:57:36.313Z,102022.02
